Time;durP1;ratioP1;P1;durP2;ratioP2;P2;SDS_P1;SDS_P2;PMS_P1;PMS_P2;Temp;Humidity;BMP_temperature;BMP_pressure;BME280_temperature;BME280_humidity;BME280_pressure;Samples;Min_cycle;Max_cycle;Signal;HPM_P1;HPM_P2
2022/09/11 00:04:41;;;;;;;4.78;1.25;;;;;;;;;;10612251;27;20047;-75
2022/09/11 00:09:46;;;;;;;2.35;1.27;;;;;;;;;;10608640;27;20205;-74
2022/09/11 00:14:50;;;;;;;0.90;0.82;;;;;;;;;;10589302;27;20046;-75
2022/09/11 00:19:53;;;;;;;1.17;0.80;;;;;;;;;;10607863;27;20035;-74
2022/09/11 00:24:58;;;;;;;2.20;0.95;;;;;;;;;;10612117;27;20035;-75
2022/09/11 00:30:02;;;;;;;3.00;1.00;;;;;;;;;;10610086;27;20096;-76
2022/09/11 00:35:09;;;;;;;1.40;0.88;;;;;;;;;;10611885;27;20510;-76
2022/09/11 00:40:19;;;;;;;1.33;0.75;;;;;;;;;;10606138;27;20070;-76
2022/09/11 00:45:24;;;;;;;4.05;1.13;;;;;;;;;;10612992;27;20031;-76
2022/09/11 00:50:28;;;;;;;0.82;0.32;;;;;;;;;;10607567;27;20035;-76
2022/09/11 00:55:34;;;;;;;4.72;1.48;;;;;;;;;;10588600;27;20519;-75
2022/09/11 01:00:38;;;;;;;3.05;1.08;;;;;;;;;;10609919;27;20043;-75
2022/09/11 01:05:43;;;;;;;1.40;0.80;;;;;;;;;;10604645;27;20408;-75
2022/09/11 01:10:56;;;;;;;1.60;0.52;;;;;;;;;;10606296;27;20039;-76
2022/09/11 01:16:04;;;;;;;1.63;0.90;;;;;;;;;;10605052;27;20143;-75
2022/09/11 01:21:26;;;;;;;3.05;1.10;;;;;;;;;;10606573;27;20471;-75
2022/09/11 01:26:51;;;;;;;1.90;0.80;;;;;;;;;;10602138;27;20038;-75
2022/09/11 01:31:57;;;;;;;0.55;0.43;;;;;;;;;;10608350;27;20061;-76
2022/09/11 01:37:03;;;;;;;1.35;0.90;;;;;;;;;;10610078;27;20159;-76
2022/09/11 01:42:07;;;;;;;2.10;0.90;;;;;;;;;;10605463;27;20042;-76
2022/09/11 01:47:12;;;;;;;1.95;0.82;;;;;;;;;;10603237;27;20130;-76
2022/09/11 01:52:16;;;;;;;3.65;1.15;;;;;;;;;;10605158;27;20047;-76
2022/09/11 01:57:24;;;;;;;1.92;0.90;;;;;;;;;;10604305;27;20042;-75
2022/09/11 02:02:33;;;;;;;1.58;1.00;;;;;;;;;;10605551;27;20106;-75
2022/09/11 02:07:38;;;;;;;7.13;1.00;;;;;;;;;;10608010;27;20247;-75
2022/09/11 02:12:43;;;;;;;1.00;0.88;;;;;;;;;;10606690;27;20206;-76
2022/09/11 02:17:51;;;;;;;0.77;0.63;;;;;;;;;;10609567;27;20043;-76
2022/09/11 02:22:53;;;;;;;0.35;0.35;;;;;;;;;;10609829;27;20039;-77
2022/09/11 02:27:57;;;;;;;2.67;0.65;;;;;;;;;;10587531;27;20035;-76
2022/09/11 02:33:02;;;;;;;2.45;1.00;;;;;;;;;;10605198;27;20045;-76
2022/09/11 02:38:11;;;;;;;0.77;0.68;;;;;;;;;;10609018;27;20039;-75
2022/09/11 02:43:31;;;;;;;2.47;1.20;;;;;;;;;;10601360;27;20065;-75
2022/09/11 02:48:44;;;;;;;0.55;0.50;;;;;;;;;;10616023;27;20039;-75
2022/09/11 02:53:49;;;;;;;0.83;0.80;;;;;;;;;;10620442;27;20058;-74
2022/09/11 02:58:54;;;;;;;2.80;1.23;;;;;;;;;;10597922;27;20266;-75
2022/09/11 03:03:58;;;;;;;2.55;1.13;;;;;;;;;;10611758;27;20492;-76
2022/09/11 03:09:01;;;;;;;2.55;1.10;;;;;;;;;;10616727;27;20077;-75
2022/09/11 03:14:03;;;;;;;4.50;1.47;;;;;;;;;;10594982;27;20043;-76
2022/09/11 03:19:07;;;;;;;0.98;0.93;;;;;;;;;;10611162;27;20531;-76
2022/09/11 03:24:15;;;;;;;2.28;1.02;;;;;;;;;;10616747;27;20118;-75
2022/09/11 03:29:18;;;;;;;1.08;0.95;;;;;;;;;;10615899;27;20481;-75
2022/09/11 03:34:22;;;;;;;2.60;0.93;;;;;;;;;;10592214;27;20043;-75
2022/09/11 03:39:25;;;;;;;1.33;0.80;;;;;;;;;;10613050;27;20028;-75
2022/09/11 03:44:28;;;;;;;2.47;0.77;;;;;;;;;;10610453;27;20054;-75
2022/09/11 03:49:32;;;;;;;2.25;0.80;;;;;;;;;;10615781;27;20410;-76
2022/09/11 03:54:35;;;;;;;0.60;0.57;;;;;;;;;;10611800;27;20046;-75
2022/09/11 03:59:38;;;;;;;0.77;0.70;;;;;;;;;;10613115;27;20144;-75
2022/09/11 04:04:42;;;;;;;1.60;0.70;;;;;;;;;;10610529;27;20126;-75
2022/09/11 04:09:45;;;;;;;2.08;0.90;;;;;;;;;;10613900;27;20042;-76
2022/09/11 04:14:49;;;;;;;1.08;0.88;;;;;;;;;;10608245;27;20059;-76
2022/09/11 04:19:53;;;;;;;1.40;0.90;;;;;;;;;;10612060;27;20042;-76
2022/09/11 04:24:56;;;;;;;;;;;;;;;;;;10611745;27;20304;-76
2022/09/11 04:29:59;;;;;;;2.70;0.95;;;;;;;;;;10610289;27;19973;-74
2022/09/11 04:35:03;;;;;;;1.17;0.80;;;;;;;;;;10612809;27;20050;-75
2022/09/11 04:40:08;;;;;;;3.58;1.50;;;;;;;;;;10596338;27;20103;-74
2022/09/11 04:45:12;;;;;;;3.28;0.80;;;;;;;;;;10611884;27;20035;-75
2022/09/11 04:50:16;;;;;;;1.50;1.20;;;;;;;;;;10612929;27;20483;-75
2022/09/11 04:55:18;;;;;;;3.00;0.88;;;;;;;;;;10617832;27;20146;-75
2022/09/11 05:00:21;;;;;;;3.10;0.97;;;;;;;;;;10614492;27;20045;-75
2022/09/11 05:05:25;;;;;;;1.13;1.02;;;;;;;;;;10610099;27;20544;-75
2022/09/11 05:10:28;;;;;;;1.42;1.05;;;;;;;;;;10606451;27;20039;-75
2022/09/11 05:15:31;;;;;;;1.00;0.80;;;;;;;;;;10605663;27;20039;-75
2022/09/11 05:20:38;;;;;;;3.33;0.90;;;;;;;;;;10609824;27;20443;-75
2022/09/11 05:25:41;;;;;;;3.13;0.70;;;;;;;;;;10609630;27;20490;-75
2022/09/11 05:30:44;;;;;;;2.60;1.10;;;;;;;;;;10602536;27;20035;-75
2022/09/11 05:35:49;;;;;;;2.15;1.00;;;;;;;;;;10597568;27;20400;-77
2022/09/11 05:40:52;;;;;;;7.15;0.90;;;;;;;;;;10599748;27;20058;-77
2022/09/11 05:45:56;;;;;;;1.02;0.70;;;;;;;;;;10605016;27;20059;-76
2022/09/11 05:50:59;;;;;;;;;;;;;;;;;;10603366;27;20050;-74
2022/09/11 05:56:07;;;;;;;5.70;1.20;;;;;;;;;;10583803;27;19957;-75
2022/09/11 06:01:11;;;;;;;1.92;0.88;;;;;;;;;;10601370;27;20428;-76
2022/09/11 06:06:15;;;;;;;0.82;0.70;;;;;;;;;;10603733;27;20043;-76
2022/09/11 06:11:21;;;;;;;1.02;0.90;;;;;;;;;;10609216;27;20167;-77
2022/09/11 06:16:24;;;;;;;2.72;1.10;;;;;;;;;;10603082;28;20046;-78
2022/09/11 06:21:28;;;;;;;1.90;1.20;;;;;;;;;;10589175;27;20385;-76
2022/09/11 06:26:32;;;;;;;3.40;1.10;;;;;;;;;;10613982;27;20426;-76
2022/09/11 06:31:35;;;;;;;1.50;1.13;;;;;;;;;;10617396;27;20155;-77
2022/09/11 06:36:38;;;;;;;1.10;0.93;;;;;;;;;;10591481;27;20261;-76
2022/09/11 06:41:42;;;;;;;1.42;1.05;;;;;;;;;;10605033;27;20047;-76
2022/09/11 06:46:46;;;;;;;2.63;1.20;;;;;;;;;;10614819;27;20046;-74
2022/09/11 06:51:51;;;;;;;2.05;1.15;;;;;;;;;;10613889;27;20035;-76
2022/09/11 06:56:55;;;;;;;1.90;0.80;;;;;;;;;;10610311;27;20043;-77
2022/09/11 07:01:59;;;;;;;2.45;1.30;;;;;;;;;;10613275;27;20666;-77
2022/09/11 07:07:02;;;;;;;1.33;1.20;;;;;;;;;;10611703;27;20039;-77
2022/09/11 07:12:06;;;;;;;3.90;0.93;;;;;;;;;;10608752;27;20092;-75
2022/09/11 07:17:09;;;;;;;3.30;1.20;;;;;;;;;;10592695;27;20040;-75
2022/09/11 07:22:13;;;;;;;2.90;1.30;;;;;;;;;;10610868;27;20027;-74
2022/09/11 07:27:18;;;;;;;1.25;1.15;;;;;;;;;;10612350;27;20047;-74
2022/09/11 07:32:21;;;;;;;3.72;1.30;;;;;;;;;;10603910;27;20139;-75
2022/09/11 07:37:23;;;;;;;1.83;1.00;;;;;;;;;;10609418;27;20043;-74
2022/09/11 07:42:27;;;;;;;3.37;1.23;;;;;;;;;;10611646;27;20039;-73
2022/09/11 07:47:32;;;;;;;1.92;1.20;;;;;;;;;;10613864;27;20067;-74
2022/09/11 07:52:35;;;;;;;23.45;13.18;;;;;;;;;;10606430;27;20250;-75
2022/09/11 07:57:40;;;;;;;4.90;2.58;;;;;;;;;;10608341;27;20037;-74
2022/09/11 08:02:43;;;;;;;5.00;1.58;;;;;;;;;;10610959;27;20043;-74
2022/09/11 08:07:45;;;;;;;2.78;1.67;;;;;;;;;;10604694;27;20123;-75
2022/09/11 08:12:51;;;;;;;1.65;1.42;;;;;;;;;;10607999;27;20035;-75
2022/09/11 08:18:01;;;;;;;6.10;2.75;;;;;;;;;;10610361;27;20661;-76
2022/09/11 08:23:04;;;;;;;;;;;;;;;;;;10608569;27;20054;-76
2022/09/11 08:28:08;;;;;;;3.65;1.92;;;;;;;;;;10606478;27;19919;-74
2022/09/11 08:33:12;;;;;;;2.40;1.80;;;;;;;;;;10607555;27;20520;-75
2022/09/11 08:38:15;;;;;;;3.70;2.08;;;;;;;;;;10588225;27;20045;-75
2022/09/11 08:43:22;;;;;;;4.82;2.10;;;;;;;;;;10604988;27;20497;-75
2022/09/11 08:48:28;;;;;;;3.70;2.13;;;;;;;;;;10609579;27;20046;-75
2022/09/11 08:53:32;;;;;;;2.85;1.92;;;;;;;;;;10606357;27;20051;-74
2022/09/11 08:58:35;;;;;;;;;;;;;;;;;;10592234;27;20038;-75
2022/09/11 09:04:04;;;;;;;5.80;2.10;;;;;;;;;;10602636;27;20031;-75
2022/09/11 09:09:11;;;;;;;3.63;1.98;;;;;;;;;;10607526;27;20039;-77
2022/09/11 09:14:23;;;;;;;5.25;2.50;;;;;;;;;;10609300;27;20415;-75
2022/09/11 09:19:30;;;;;;;4.25;2.55;;;;;;;;;;10605220;27;20426;-75
2022/09/11 09:24:39;;;;;;;3.10;2.17;;;;;;;;;;10607562;27;20107;-75
2022/09/11 09:29:46;;;;;;;3.55;2.22;;;;;;;;;;10582579;27;20059;-75
2022/09/11 09:34:52;;;;;;;6.55;2.65;;;;;;;;;;10588328;27;20035;-75
2022/09/11 09:39:55;;;;;;;4.82;2.20;;;;;;;;;;10585200;27;20099;-76
2022/09/11 09:45:06;;;;;;;4.50;2.75;;;;;;;;;;10607527;27;20621;-77
2022/09/11 09:50:15;;;;;;;3.95;2.40;;;;;;;;;;10602779;27;20051;-75
2022/09/11 09:55:18;;;;;;;3.90;2.42;;;;;;;;;;10581547;27;20127;-74
2022/09/11 10:00:21;;;;;;;3.67;2.30;;;;;;;;;;10607952;27;20503;-74
2022/09/11 10:05:28;;;;;;;8.32;2.88;;;;;;;;;;10602352;27;20042;-77
2022/09/11 10:10:35;;;;;;;5.68;3.03;;;;;;;;;;10599439;27;20584;-76
2022/09/11 10:15:38;;;;;;;5.53;3.17;;;;;;;;;;10583304;28;20312;-75
2022/09/11 10:20:43;;;;;;;3.97;2.30;;;;;;;;;;10590906;27;20149;-78
2022/09/11 10:25:48;;;;;;;4.65;2.78;;;;;;;;;;10609172;28;20031;-78
2022/09/11 10:30:59;;;;;;;6.10;3.30;;;;;;;;;;10607040;28;20057;-78
2022/09/11 10:36:05;;;;;;;5.25;3.03;;;;;;;;;;10610097;27;20049;-79
2022/09/11 10:41:09;;;;;;;6.10;2.85;;;;;;;;;;10580323;27;20031;-78
2022/09/11 10:46:27;;;;;;;6.00;3.10;;;;;;;;;;10600836;28;20178;-82
2022/09/11 10:51:31;;;;;;;4.85;2.90;;;;;;;;;;10604098;27;20130;-80
2022/09/11 10:56:39;;;;;;;5.10;2.53;;;;;;;;;;10602189;27;20051;-80
2022/09/11 11:01:41;;;;;;;3.60;2.53;;;;;;;;;;10604278;27;20142;-79
2022/09/11 11:06:53;;;;;;;3.60;2.40;;;;;;;;;;10601190;27;20042;-79
2022/09/11 11:12:02;;;;;;;3.92;2.47;;;;;;;;;;10593547;27;20126;-79
2022/09/11 11:17:11;;;;;;;4.65;2.42;;;;;;;;;;10610755;27;20051;-79
2022/09/11 11:22:20;;;;;;;3.17;2.28;;;;;;;;;;10609295;27;20491;-79
2022/09/11 11:27:35;;;;;;;3.17;2.00;;;;;;;;;;10611105;27;20461;-79
2022/09/11 11:32:48;;;;;;;2.92;2.10;;;;;;;;;;10604581;27;20122;-80
2022/09/11 11:37:55;;;;;;;4.03;2.05;;;;;;;;;;10610269;27;20039;-82
2022/09/11 11:43:01;;;;;;;2.15;1.95;;;;;;;;;;10609084;27;20039;-80
2022/09/11 11:48:08;;;;;;;3.35;2.45;;;;;;;;;;10607583;27;20050;-79
2022/09/11 11:53:17;;;;;;;2.90;2.10;;;;;;;;;;10609148;27;20108;-79
2022/09/11 11:58:23;;;;;;;2.78;2.10;;;;;;;;;;10612520;27;20431;-80
2022/09/11 12:03:29;;;;;;;2.92;2.00;;;;;;;;;;10610994;27;20250;-78
2022/09/11 12:08:39;;;;;;;4.05;2.53;;;;;;;;;;10613942;27;20043;-79
2022/09/11 12:13:44;;;;;;;2.50;2.00;;;;;;;;;;10602522;27;20063;-80
2022/09/11 12:19:04;;;;;;;4.25;2.20;;;;;;;;;;10607109;27;20450;-80
2022/09/11 12:24:18;;;;;;;2.88;2.30;;;;;;;;;;10587248;27;20112;-78
2022/09/11 12:29:51;;;;;;;5.05;3.10;;;;;;;;;;10608707;27;20031;-77
2022/09/11 12:35:00;;;;;;;2.45;2.08;;;;;;;;;;10589497;27;20138;-78
2022/09/11 12:40:06;;;;;;;2.80;2.17;;;;;;;;;;10602867;27;20130;-78
2022/09/11 12:45:29;;;;;;;3.33;2.17;;;;;;;;;;10601188;27;20034;-78
2022/09/11 12:50:32;;;;;;;2.13;1.77;;;;;;;;;;10602100;27;20047;-78
2022/09/11 12:55:42;;;;;;;2.30;1.70;;;;;;;;;;10580464;27;20411;-77
2022/09/11 13:00:46;;;;;;;3.90;2.42;;;;;;;;;;10578250;27;20411;-78
2022/09/11 13:05:53;;;;;;;4.30;2.42;;;;;;;;;;10600776;27;21422;-77
2022/09/11 13:11:11;;;;;;;4.60;2.30;;;;;;;;;;10594842;27;20586;-77
2022/09/11 13:16:22;;;;;;;5.80;2.40;;;;;;;;;;10603453;27;20267;-77
2022/09/11 13:21:26;;;;;;;3.10;2.33;;;;;;;;;;10589469;27;20053;-77
2022/09/11 13:26:31;;;;;;;4.07;2.78;;;;;;;;;;10610590;27;20047;-77
2022/09/11 13:31:36;;;;;;;5.63;2.42;;;;;;;;;;10609723;27;20135;-78
2022/09/11 13:36:46;;;;;;;3.90;2.58;;;;;;;;;;10608603;27;20088;-77
2022/09/11 13:41:50;;;;;;;5.22;2.70;;;;;;;;;;10591043;27;20060;-77
2022/09/11 13:46:56;;;;;;;3.08;2.42;;;;;;;;;;10604605;27;20051;-77
2022/09/11 13:52:00;;;;;;;3.65;2.40;;;;;;;;;;10588687;27;20039;-78
2022/09/11 13:57:12;;;;;;;4.78;2.63;;;;;;;;;;10601849;27;20404;-78
2022/09/11 14:02:23;;;;;;;3.35;2.47;;;;;;;;;;10607357;27;20039;-78
2022/09/11 14:07:26;;;;;;;3.40;2.42;;;;;;;;;;10602073;27;20282;-79
2022/09/11 14:12:30;;;;;;;3.15;2.17;;;;;;;;;;10606190;28;20031;-77
2022/09/11 14:17:39;;;;;;;5.63;2.55;;;;;;;;;;10607817;28;20039;-78
2022/09/11 14:22:41;;;;;;;2.20;1.90;;;;;;;;;;10578660;28;20032;-78
2022/09/11 14:27:44;;;;;;;2.42;1.83;;;;;;;;;;10601201;27;20035;-78
2022/09/11 14:32:49;;;;;;;5.10;2.95;;;;;;;;;;10603282;27;20031;-78
2022/09/11 14:37:51;;;;;;;2.33;1.45;;;;;;;;;;10607343;27;20122;-78
2022/09/11 14:42:54;;;;;;;2.15;1.90;;;;;;;;;;10609367;27;20042;-79
2022/09/11 14:47:59;;;;;;;2.63;2.00;;;;;;;;;;10615084;27;20047;-79
2022/09/11 14:53:01;;;;;;;6.40;2.67;;;;;;;;;;10614020;27;20127;-77
2022/09/11 14:58:04;;;;;;;3.92;2.60;;;;;;;;;;10616296;27;20035;-77
2022/09/11 15:03:08;;;;;;;3.25;2.00;;;;;;;;;;10605928;27;20280;-78
2022/09/11 15:08:11;;;;;;;2.45;1.85;;;;;;;;;;10616470;27;20099;-78
2022/09/11 15:13:14;;;;;;;1.92;1.60;;;;;;;;;;10607755;27;20043;-78
2022/09/11 15:18:19;;;;;;;3.75;2.65;;;;;;;;;;10612147;27;20125;-78
2022/09/11 15:23:22;;;;;;;3.50;2.70;;;;;;;;;;10591752;27;20289;-77
2022/09/11 15:28:25;;;;;;;3.65;1.73;;;;;;;;;;10595222;27;20155;-77
2022/09/11 15:33:31;;;;;;;4.95;2.78;;;;;;;;;;10615494;27;20035;-78
2022/09/11 15:38:34;;;;;;;5.22;3.03;;;;;;;;;;10614096;27;20548;-78
2022/09/11 15:43:38;;;;;;;3.70;2.30;;;;;;;;;;10589748;27;20043;-79
2022/09/11 15:49:07;;;;;;;3.95;2.90;;;;;;;;;;10595749;27;20051;-80
2022/09/11 15:54:44;;;;;;;3.40;2.40;;;;;;;;;;10602842;27;20428;-79
2022/09/11 15:59:48;;;;;;;3.17;2.22;;;;;;;;;;10595263;27;20047;-79
2022/09/11 16:04:51;;;;;;;1.92;1.52;;;;;;;;;;10611354;27;20088;-79
2022/09/11 16:10:04;;;;;;;3.70;2.40;;;;;;;;;;10607780;27;20399;-79
2022/09/11 16:15:11;;;;;;;4.43;2.53;;;;;;;;;;10612060;27;20469;-78
2022/09/11 16:20:14;;;;;;;1.80;1.48;;;;;;;;;;10590943;27;20158;-79
2022/09/11 16:25:18;;;;;;;4.18;2.80;;;;;;;;;;10610219;27;20043;-79
2022/09/11 16:30:21;;;;;;;3.47;2.58;;;;;;;;;;10590412;27;20046;-77
2022/09/11 16:35:44;;;;;;;3.20;2.40;;;;;;;;;;10608413;27;20047;-78
2022/09/11 16:40:48;;;;;;;9.75;3.03;;;;;;;;;;10591258;27;20031;-78
2022/09/11 16:45:51;;;;;;;5.05;2.88;;;;;;;;;;10606148;27;20099;-78
2022/09/11 16:50:54;;;;;;;7.38;3.05;;;;;;;;;;10610405;27;20039;-77
2022/09/11 16:56:00;;;;;;;5.55;3.22;;;;;;;;;;10602215;27;20118;-78
2022/09/11 17:01:03;;;;;;;6.55;3.30;;;;;;;;;;10587951;27;20065;-78
2022/09/11 17:06:07;;;;;;;5.88;3.50;;;;;;;;;;10604935;27;20143;-79
2022/09/11 17:11:12;;;;;;;5.18;3.13;;;;;;;;;;10590328;27;20442;-79
2022/09/11 17:16:16;;;;;;;4.70;3.20;;;;;;;;;;10611207;27;20118;-79
2022/09/11 17:21:19;;;;;;;6.47;3.38;;;;;;;;;;10609039;27;20511;-79
2022/09/11 17:26:23;;;;;;;8.07;3.53;;;;;;;;;;10607776;27;20038;-78
2022/09/11 17:31:26;;;;;;;8.18;4.13;;;;;;;;;;10597513;27;20466;-79
2022/09/11 17:36:29;;;;;;;6.45;3.60;;;;;;;;;;10607812;27;20039;-78
2022/09/11 17:41:34;;;;;;;8.70;3.77;;;;;;;;;;10610338;27;20031;-78
2022/09/11 17:52:38;;;;;;;7.97;3.92;;;;;;;;;;10611276;27;20326;-79
2022/09/11 17:58:20;;;;;;;;;;;;;;;;;;;;;
2022/09/11 18:03:35;;;;;;;10.40;4.68;;;;;;;;;;10583259;27;20048;-78
2022/09/11 18:08:39;;;;;;;6.78;3.35;;;;;;;;;;10605985;27;20726;-78
2022/09/11 18:13:53;;;;;;;7.13;4.10;;;;;;;;;;10606367;27;20059;-78
2022/09/11 18:19:02;;;;;;;7.93;4.20;;;;;;;;;;10588553;27;20039;-78
2022/09/11 18:24:10;;;;;;;7.22;3.78;;;;;;;;;;10605823;28;20172;-79
2022/09/11 18:30:12;;;;;;;7.85;4.15;;;;;;;;;;10604864;27;20100;-76
2022/09/11 18:35:26;;;;;;;8.30;4.50;;;;;;;;;;10611731;27;20181;-78
2022/09/11 18:40:31;;;;;;;10.45;4.80;;;;;;;;;;10603730;27;20290;-77
2022/09/11 18:45:34;;;;;;;9.30;4.82;;;;;;;;;;10600502;27;20053;-76
2022/09/11 18:50:38;;;;;;;8.25;4.45;;;;;;;;;;10605024;28;20458;-77
2022/09/11 18:55:41;;;;;;;10.07;4.50;;;;;;;;;;10602588;28;20054;-77
2022/09/11 19:00:45;;;;;;;12.93;5.68;;;;;;;;;;10608289;27;20055;-75
2022/09/11 19:05:52;;;;;;;10.90;5.10;;;;;;;;;;10604013;27;20135;-75
2022/09/11 19:10:54;;;;;;;11.18;4.93;;;;;;;;;;10600844;27;20046;-74
2022/09/11 19:15:58;;;;;;;7.83;4.27;;;;;;;;;;10602397;27;20371;-75
2022/09/11 19:21:04;;;;;;;7.15;3.42;;;;;;;;;;10608347;28;20039;-74
2022/09/11 19:26:08;;;;;;;5.72;2.63;;;;;;;;;;10607021;27;20039;-74
2022/09/11 19:31:12;;;;;;;7.15;3.60;;;;;;;;;;10611771;27;20440;-76
2022/09/11 19:36:17;;;;;;;11.90;4.80;;;;;;;;;;10606810;27;20042;-74
2022/09/11 19:41:21;;;;;;;9.30;4.38;;;;;;;;;;10609689;27;20549;-73
2022/09/11 19:46:25;;;;;;;10.25;4.43;;;;;;;;;;10613516;27;20083;-74
2022/09/11 19:51:31;;;;;;;9.07;4.70;;;;;;;;;;10607164;27;20035;-74
2022/09/11 19:56:35;;;;;;;8.13;4.15;;;;;;;;;;10594103;27;20583;-74
2022/09/11 20:01:38;;;;;;;10.77;5.03;;;;;;;;;;10607626;27;20088;-74
2022/09/11 20:06:42;;;;;;;11.82;5.25;;;;;;;;;;10605348;27;20051;-75
2022/09/11 20:11:44;;;;;;;;;;;;;;;;;;10614551;27;20035;-74
2022/09/11 20:16:47;;;;;;;10.90;5.18;;;;;;;;;;10608260;27;19925;-75
2022/09/11 20:21:51;;;;;;;7.70;4.37;;;;;;;;;;10613725;27;20486;-75
2022/09/11 20:26:54;;;;;;;10.70;4.90;;;;;;;;;;10606641;27;20522;-75
2022/09/11 20:31:57;;;;;;;9.63;5.07;;;;;;;;;;10610215;27;20045;-76
2022/09/11 20:37:03;;;;;;;10.40;4.60;;;;;;;;;;10619139;27;20035;-76
2022/09/11 20:42:12;;;;;;;10.38;4.40;;;;;;;;;;10613202;27;20408;-76
2022/09/11 20:47:18;;;;;;;8.85;4.40;;;;;;;;;;10594963;27;20039;-74
2022/09/11 20:52:22;;;;;;;8.63;4.20;;;;;;;;;;10612774;27;20031;-74
2022/09/11 20:57:25;;;;;;;13.05;5.55;;;;;;;;;;10610182;27;20039;-75
2022/09/11 21:02:28;;;;;;;10.20;4.20;;;;;;;;;;10609506;27;20046;-76
2022/09/11 21:07:32;;;;;;;9.63;4.70;;;;;;;;;;10611022;27;20035;-75
2022/09/11 21:12:35;;;;;;;13.98;4.80;;;;;;;;;;10603340;27;20061;-78
2022/09/11 21:17:38;;;;;;;10.32;4.85;;;;;;;;;;10603890;27;20591;-75
2022/09/11 21:22:42;;;;;;;31.70;14.57;;;;;;;;;;10606188;27;20080;-75
2022/09/11 21:27:47;;;;;;;9.68;4.72;;;;;;;;;;10589781;27;20050;-75
2022/09/11 21:32:49;;;;;;;10.05;5.15;;;;;;;;;;10604094;27;20035;-75
2022/09/11 21:37:53;;;;;;;9.55;3.90;;;;;;;;;;10606352;27;20043;-75
2022/09/11 21:42:56;;;;;;;11.93;4.50;;;;;;;;;;10592989;27;20054;-75
2022/09/11 21:47:59;;;;;;;9.50;3.70;;;;;;;;;;10601238;27;20039;-75
2022/09/11 21:53:03;;;;;;;7.45;3.47;;;;;;;;;;10603849;27;20063;-75
2022/09/11 21:58:06;;;;;;;5.43;2.53;;;;;;;;;;10610662;27;20144;-75
2022/09/11 22:03:09;;;;;;;7.03;3.60;;;;;;;;;;10592527;27;20385;-75
2022/09/11 22:08:15;;;;;;;5.72;3.28;;;;;;;;;;10590979;27;20518;-75
2022/09/11 22:13:27;;;;;;;5.38;2.63;;;;;;;;;;10595009;27;20387;-76
2022/09/11 22:18:30;;;;;;;6.13;2.88;;;;;;;;;;10608470;27;20161;-75
2022/09/11 22:23:35;;;;;;;6.67;3.40;;;;;;;;;;10607072;27;20035;-74
2022/09/11 22:28:37;;;;;;;6.00;3.03;;;;;;;;;;10607038;27;20046;-75
2022/09/11 22:33:41;;;;;;;4.95;2.72;;;;;;;;;;10610567;27;20121;-76
2022/09/11 22:38:45;;;;;;;6.38;2.80;;;;;;;;;;10606467;28;20126;-75
2022/09/11 22:43:49;;;;;;;11.38;3.08;;;;;;;;;;10600551;27;20040;-74
2022/09/11 22:48:52;;;;;;;5.60;2.47;;;;;;;;;;10599697;28;20509;-73
2022/09/11 22:53:56;;;;;;;4.95;2.15;;;;;;;;;;10600755;27;20035;-73
2022/09/11 22:58:59;;;;;;;6.10;2.83;;;;;;;;;;10601975;28;20054;-73
2022/09/11 23:04:03;;;;;;;5.18;2.85;;;;;;;;;;10606252;27;20745;-74
2022/09/11 23:09:08;;;;;;;7.03;2.70;;;;;;;;;;10611110;27;20069;-75
2022/09/11 23:14:10;;;;;;;4.30;2.42;;;;;;;;;;10610062;27;20043;-74
2022/09/11 23:19:16;;;;;;;5.68;2.90;;;;;;;;;;10604075;27;20081;-75
2022/09/11 23:24:20;;;;;;;7.03;2.90;;;;;;;;;;10607751;27;20442;-74
2022/09/11 23:29:24;;;;;;;6.35;2.83;;;;;;;;;;10605197;27;20036;-76
2022/09/11 23:34:27;;;;;;;;;;;;;;;;;;10611498;27;20043;-75
2022/09/11 23:39:32;;;;;;;4.13;2.17;;;;;;;;;;10618448;27;20015;-76
2022/09/11 23:44:34;;;;;;;4.82;2.53;;;;;;;;;;10607367;27;20050;-76
2022/09/11 23:49:37;;;;;;;6.30;2.50;;;;;;;;;;10608225;27;20082;-75
2022/09/11 23:54:41;;;;;;;3.90;2.15;;;;;;;;;;10589785;27;20046;-75
2022/09/11 23:59:44;;;;;;;3.55;1.80;;;;;;;;;;10592641;27;20039;-75
